Language: 


Des rapports , des résumés tant et plus, au choix de chacun....


Données Historiques de Météogheer
Journalier Rapport pour Mars 1, 2017 Unitée:  Les deux    Impériale   Métrique
Suivant Jour »
Journalier Hebdomadaire Mensuel Annuel Sur mesure
  Max: Min: Moyenne:
Température: 50.2 °F /  10.1 °C 32 °F /  0.0 °C 46.4 °F /  8 °C
Point de rosée: 47.3 °F /  8.5 °C 39.4 °F /  4.1 °C 43.2 °F /  6.2 °C
Humidité: 98% 0% 88%
Vent: 23.3mph /  37.5km/h - 10.1mph /  16.2km/h
Rafales: 27.1mph /  43.6km/h - -
Vent- - WSW
Pression: 29.6 in /  1000.9 hPa 0 in /  0.0 hPa -
Pluie: 0.11 in /  2.8 mm    
Historical Graphs
 
 
Données tabulaires pour Mars 1, 2017
Heure Température Point de rosée Pression Vent Vent Rafales Humidité Pluie Taux (Horaire) Conditions
00:01 42.6 °F /  5.9 °C 41.7 °F /  5.4 °C 29.4in /  994.1hPa SSW 8.1mph /  13.0km/h 13mph /  20.9km/h 97% 0.01in /  0.3mm
00:07 42.8 °F /  6.0 °C 42.1 °F /  5.6 °C 29.4in /  994.1hPa WSW 7.6mph /  12.2km/h 14.3mph /  23.0km/h 97% 0.01in /  0.3mm
00:12 43 °F /  6.1 °C 42.1 °F /  5.6 °C 29.4in /  994.1hPa SSW 10.1mph /  16.3km/h 14.3mph /  23.0km/h 97% 0.01in /  0.3mm
00:17 43.2 °F /  6.2 °C 42.3 °F /  5.7 °C 29.4in /  994.1hPa WSW 9.6mph /  15.4km/h 13mph /  20.9km/h 97% 0.01in /  0.3mm
00:22 43.3 °F /  6.3 °C 42.4 °F /  5.8 °C 29.4in /  994.1hPa SW 8.7mph /  14.0km/h 12.8mph /  20.6km/h 97% 0.01in /  0.3mm
00:27 43.5 °F /  6.4 °C 42.6 °F /  5.9 °C 29.4in /  995.1hPa WSW 8.1mph /  13.0km/h 12.8mph /  20.6km/h 97% 0.01in /  0.3mm
00:32 43.5 °F /  6.4 °C 42.8 °F /  6.0 °C 29.4in /  995.1hPa SSW 10.3mph /  16.6km/h 12.5mph /  20.1km/h 97% 0in /  0.0mm
00:37 43.9 °F /  6.6 °C 43 °F /  6.1 °C 29.4in /  995.1hPa SSW 8.1mph /  13.0km/h 12.5mph /  20.1km/h 97% 0in /  0.0mm
00:42 43.9 °F /  6.6 °C 43 °F /  6.1 °C 29.4in /  994.1hPa WSW 10.1mph /  16.3km/h 13.2mph /  21.2km/h 97% 0in /  0.0mm
00:47 44.1 °F /  6.7 °C 43.2 °F /  6.2 °C 29.4in /  994.1hPa SW 9.8mph /  15.8km/h 13.2mph /  21.2km/h 97% 0in /  0.0mm
00:52 44.1 °F /  6.7 °C 43.2 °F /  6.2 °C 29.4in /  994.1hPa WSW 10.7mph /  17.2km/h 14.8mph /  23.8km/h 97% 0in /  0.0mm
00:57 44.2 °F /  6.8 °C 43.3 °F /  6.3 °C 29.4in /  994.1hPa WSW 15.2mph /  24.5km/h 15.2mph /  24.5km/h 97% 0in /  0.0mm
01:02 44.2 °F /  6.8 °C 43.3 °F /  6.3 °C 29.4in /  994.1hPa SW 10.3mph /  16.6km/h 15.2mph /  24.5km/h 97% 0in /  0.0mm
01:07 44.2 °F /  6.8 °C 43.3 °F /  6.3 °C 29.4in /  994.1hPa WSW 11.2mph /  18.0km/h 13.6mph /  21.9km/h 97% 0in /  0.0mm
01:12 44.2 °F /  6.8 °C 43.5 °F /  6.4 °C 29.4in /  994.1hPa WSW 10.7mph /  17.2km/h 13.6mph /  21.9km/h 97% 0in /  0.0mm
01:17 44.2 °F /  6.8 °C 43.5 °F /  6.4 °C 29.4in /  994.1hPa SW 12.1mph /  19.5km/h 15.4mph /  24.8km/h 97% 0in /  0.0mm
01:22 44.4 °F /  6.9 °C 43.7 °F /  6.5 °C 29.4in /  994.1hPa West 19.5mph /  31.4km/h 19.5mph /  31.4km/h 97% 0in /  0.0mm
01:27 44.8 °F /  7.1 °C 43.5 °F /  6.4 °C 29.4in /  994.1hPa West 12.3mph /  19.8km/h 19.9mph /  32.0km/h 96% 0in /  0.0mm
01:32 45 °F /  7.2 °C 43.9 °F /  6.6 °C 29.4in /  994.1hPa WSW 11mph /  17.7km/h 19.9mph /  32.0km/h 96% 0.01in /  0.3mm
01:37 45 °F /  7.2 °C 43.9 °F /  6.6 °C 29.4in /  994.1hPa WSW 14.5mph /  23.3km/h 14.5mph /  23.3km/h 96% 0.01in /  0.3mm
01:42 45.1 °F /  7.3 °C 44.1 °F /  6.7 °C 29.4in /  994.1hPa West 19.5mph /  31.4km/h 20.4mph /  32.8km/h 96% 0.01in /  0.3mm
01:47 45.1 °F /  7.3 °C 43.9 °F /  6.6 °C 29.4in /  994.1hPa WSW 15.4mph /  24.8km/h 23.7mph /  38.1km/h 95% 0.01in /  0.3mm
01:52 45.3 °F /  7.4 °C 43.9 °F /  6.6 °C 29.4in /  994.1hPa WSW 23mph /  37.0km/h 23.9mph /  38.5km/h 94% 0.01in /  0.3mm
01:57 45.7 °F /  7.6 °C 43.2 °F /  6.2 °C 29.4in /  994.1hPa West 21.9mph /  35.2km/h 23.9mph /  38.5km/h 91% 0.01in /  0.3mm
02:02 32 °F /  0.0 °C 42.6 °F /  5.9 °C 0in /  0.0hPa Calm     0% 0.01in /  0.3mm
02:07 45.9 °F /  7.7 °C 42.3 °F /  5.7 °C 29.4in /  994.1hPa West 14.3mph /  23.0km/h 25.7mph /  41.4km/h 87% 0.01in /  0.3mm
02:12 45.9 °F /  7.7 °C 42.1 °F /  5.6 °C 29.4in /  995.1hPa WSW 15.2mph /  24.5km/h 25.7mph /  41.4km/h 86% 0.01in /  0.3mm
02:17 46 °F /  7.8 °C 41.9 °F /  5.5 °C 29.4in /  995.1hPa WSW 19.7mph /  31.7km/h 25.7mph /  41.4km/h 85% 0.01in /  0.3mm
02:22 46 °F /  7.8 °C 41.5 °F /  5.3 °C 29.4in /  995.1hPa West 18.6mph /  29.9km/h 25.9mph /  41.7km/h 84% 0.01in /  0.3mm
02:27 46 °F /  7.8 °C 41.2 °F /  5.1 °C 29.4in /  995.1hPa West 23mph /  37.0km/h 25.9mph /  41.7km/h 83% 0.01in /  0.3mm
02:32 46.2 °F /  7.9 °C 41.2 °F /  5.1 °C 29.4in /  995.1hPa West 17.7mph /  28.5km/h 25.9mph /  41.7km/h 82% 0in /  0.0mm
02:37 46.2 °F /  7.9 °C 40.8 °F /  4.9 °C 29.4in /  995.1hPa West 15.2mph /  24.5km/h 27.1mph /  43.6km/h 81% 0in /  0.0mm
02:42 46.6 °F /  8.1 °C 40.8 °F /  4.9 °C 29.4in /  995.1hPa West 17.4mph /  28.0km/h 27.1mph /  43.6km/h 81% 0in /  0.0mm
02:47 46.6 °F /  8.1 °C 40.6 °F /  4.8 °C 29.4in /  995.1hPa West 22.4mph /  36.0km/h 25.9mph /  41.7km/h 80% 0in /  0.0mm
02:52 46.6 °F /  8.1 °C 40.5 °F /  4.7 °C 29.4in /  995.1hPa West 17.2mph /  27.7km/h 25.9mph /  41.7km/h 79% 0in /  0.0mm
02:57 46.6 °F /  8.1 °C 40.3 °F /  4.6 °C 29.4in /  995.1hPa West 15.2mph /  24.5km/h 23.3mph /  37.5km/h 79% 0in /  0.0mm
03:02 46.6 °F /  8.1 °C 40.6 °F /  4.8 °C 29.4in /  995.1hPa West 14.8mph /  23.8km/h 20.8mph /  33.5km/h 80% 0in /  0.0mm
03:07 46.6 °F /  8.1 °C 40.6 °F /  4.8 °C 29.4in /  995.1hPa West 12.8mph /  20.6km/h 25.5mph /  41.0km/h 80% 0in /  0.0mm
03:12 46.6 °F /  8.1 °C 40.3 °F /  4.6 °C 29.4in /  995.1hPa West 17.2mph /  27.7km/h 25.5mph /  41.0km/h 79% 0in /  0.0mm
03:17 46.6 °F /  8.1 °C 40.3 °F /  4.6 °C 29.4in /  995.1hPa WSW 18.6mph /  29.9km/h 23.5mph /  37.8km/h 79% 0in /  0.0mm
03:22 46.6 °F /  8.1 °C 40.3 °F /  4.6 °C 29.4in /  995.1hPa West 20.4mph /  32.8km/h 23.9mph /  38.5km/h 79% 0in /  0.0mm
03:27 46.6 °F /  8.1 °C 39.9 °F /  4.4 °C 29.4in /  995.1hPa WSW 19.7mph /  31.7km/h 23.9mph /  38.5km/h 78% 0in /  0.0mm
03:32 46.6 °F /  8.1 °C 39.9 °F /  4.4 °C 29.4in /  995.1hPa West 10.7mph /  17.2km/h 23.5mph /  37.8km/h 78% 0in /  0.0mm
03:37 46.6 °F /  8.1 °C 39.7 °F /  4.3 °C 29.4in /  996.2hPa West 14.3mph /  23.0km/h 22.8mph /  36.7km/h 77% 0in /  0.0mm
03:42 46.6 °F /  8.1 °C 39.9 °F /  4.4 °C 29.4in /  996.2hPa West 17.4mph /  28.0km/h 25.9mph /  41.7km/h 78% 0in /  0.0mm
03:47 46.6 °F /  8.1 °C 39.9 °F /  4.4 °C 29.4in /  996.2hPa WSW 19mph /  30.6km/h 25.9mph /  41.7km/h 78% 0in /  0.0mm
03:52 46.6 °F /  8.1 °C 39.9 °F /  4.4 °C 29.4in /  996.2hPa WSW 14.8mph /  23.8km/h 22.8mph /  36.7km/h 78% 0in /  0.0mm
03:57 46.6 °F /  8.1 °C 39.6 °F /  4.2 °C 29.4in /  996.2hPa West 11.9mph /  19.1km/h 22.8mph /  36.7km/h 77% 0in /  0.0mm
04:02 46.2 °F /  7.9 °C 39.6 °F /  4.2 °C 29.4in /  996.2hPa West 22.1mph /  35.6km/h 23.9mph /  38.5km/h 77% 0in /  0.0mm
04:07 46 °F /  7.8 °C 39.4 °F /  4.1 °C 29.4in /  996.2hPa WSW 23.3mph /  37.5km/h 23.9mph /  38.5km/h 77% 0in /  0.0mm
04:12 46 °F /  7.8 °C 39.4 °F /  4.1 °C 29.4in /  996.2hPa WSW 15.9mph /  25.6km/h 23.5mph /  37.8km/h 77% 0in /  0.0mm
04:17 45.9 °F /  7.7 °C 39.6 °F /  4.2 °C 29.4in /  996.2hPa WSW 8.5mph /  13.7km/h 23.5mph /  37.8km/h 78% 0in /  0.0mm
04:22 46 °F /  7.8 °C 39.4 °F /  4.1 °C 29.4in /  996.8hPa West 17.7mph /  28.5km/h 24.2mph /  38.9km/h 77% 0in /  0.0mm
04:27 45.9 °F /  7.7 °C 39.6 °F /  4.2 °C 29.4in /  996.8hPa West 17.7mph /  28.5km/h 24.2mph /  38.9km/h 78% 0in /  0.0mm
04:32 45.9 °F /  7.7 °C 39.6 °F /  4.2 °C 29.4in /  996.8hPa WSW 13.2mph /  21.2km/h 21.9mph /  35.2km/h 78% 0in /  0.0mm
04:38 45.7 °F /  7.6 °C 39.4 °F /  4.1 °C 29.4in /  996.8hPa WSW 10.5mph /  16.9km/h 17.7mph /  28.5km/h 79% 0in /  0.0mm
04:43 45.9 °F /  7.7 °C 39.6 °F /  4.2 °C 29.4in /  996.8hPa West 17.4mph /  28.0km/h 25.1mph /  40.4km/h 79% 0in /  0.0mm
04:48 45.9 °F /  7.7 °C 39.6 °F /  4.2 °C 29.4in /  996.8hPa West 11mph /  17.7km/h 25.1mph /  40.4km/h 79% 0in /  0.0mm
04:53 45.9 °F /  7.7 °C 39.6 °F /  4.2 °C 29.4in /  996.8hPa West 14.5mph /  23.3km/h 19.5mph /  31.4km/h 79% 0in /  0.0mm
04:57 45.9 °F /  7.7 °C 39.6 °F /  4.2 °C 29.4in /  996.8hPa WSW 12.5mph /  20.1km/h 19.7mph /  31.7km/h 79% 0in /  0.0mm
05:03 45.7 °F /  7.6 °C 39.4 °F /  4.1 °C 29.4in /  996.8hPa West 12.3mph /  19.8km/h 19.7mph /  31.7km/h 79% 0in /  0.0mm
05:08 45.7 °F /  7.6 °C 39.7 °F /  4.3 °C 29.4in /  996.2hPa West 10.3mph /  16.6km/h 15.4mph /  24.8km/h 80% 0in /  0.0mm
05:13 45.3 °F /  7.4 °C 39.6 °F /  4.2 °C 29.4in /  996.2hPa WSW 10.1mph /  16.3km/h 19.5mph /  31.4km/h 80% 0in /  0.0mm
05:18 45.3 °F /  7.4 °C 39.9 °F /  4.4 °C 29.4in /  996.2hPa West 8.1mph /  13.0km/h 19.5mph /  31.4km/h 81% 0in /  0.0mm
05:23 45.1 °F /  7.3 °C 39.7 °F /  4.3 °C 29.4in /  996.8hPa West 5.4mph /  8.7km/h 15.2mph /  24.5km/h 81% 0in /  0.0mm
05:27 45.1 °F /  7.3 °C 39.7 °F /  4.3 °C 29.4in /  996.8hPa West 13mph /  20.9km/h 14.3mph /  23.0km/h 81% 0in /  0.0mm
05:33 45.1 °F /  7.3 °C 40.1 °F /  4.5 °C 29.4in /  996.8hPa West 7.6mph /  12.2km/h 14.3mph /  23.0km/h 82% 0in /  0.0mm
05:38 45.1 °F /  7.3 °C 40.5 °F /  4.7 °C 29.5in /  997.9hPa West 23mph /  37.0km/h 23mph /  37.0km/h 83% 0in /  0.0mm
05:42 45.1 °F /  7.3 °C 40.3 °F /  4.6 °C 29.5in /  997.9hPa WSW 10.7mph /  17.2km/h 23mph /  37.0km/h 83% 0in /  0.0mm
05:48 45.1 °F /  7.3 °C 40.5 °F /  4.7 °C 29.5in /  997.9hPa SW 14.8mph /  23.8km/h 23.9mph /  38.5km/h 84% 0in /  0.0mm
05:53 45 °F /  7.2 °C 40.6 °F /  4.8 °C 29.5in /  997.9hPa West 10.3mph /  16.6km/h 23.9mph /  38.5km/h 85% 0in /  0.0mm
05:58 45 °F /  7.2 °C 40.8 °F /  4.9 °C 29.5in /  997.9hPa West 17.4mph /  28.0km/h 17.4mph /  28.0km/h 86% 0.01in /  0.3mm
06:03 45 °F /  7.2 °C 41.2 °F /  5.1 °C 29.5in /  997.9hPa West 12.1mph /  19.5km/h 22.4mph /  36.0km/h 87% 0.01in /  0.3mm
06:08 45 °F /  7.2 °C 41.2 °F /  5.1 °C 29.5in /  997.9hPa West 12.5mph /  20.1km/h 22.4mph /  36.0km/h 87% 0.01in /  0.3mm
06:13 45 °F /  7.2 °C 41.5 °F /  5.3 °C 29.5in /  997.9hPa SW 12.8mph /  20.6km/h 17.7mph /  28.5km/h 88% 0.01in /  0.3mm
06:18 45 °F /  7.2 °C 42.1 °F /  5.6 °C 29.5in /  997.9hPa West 10.3mph /  16.6km/h 20.4mph /  32.8km/h 90% 0.01in /  0.3mm
06:23 45 °F /  7.2 °C 42.1 °F /  5.6 °C 29.5in /  998.9hPa West 10.3mph /  16.6km/h 20.4mph /  32.8km/h 90% 0.01in /  0.3mm
06:28 44.8 °F /  7.1 °C 41.9 °F /  5.5 °C 29.5in /  998.9hPa West 13mph /  20.9km/h 20.4mph /  32.8km/h 90% 0.01in /  0.3mm
06:33 44.4 °F /  6.9 °C 41.5 °F /  5.3 °C 29.5in /  998.9hPa West 7.6mph /  12.2km/h 16.8mph /  27.0km/h 89% 0.02in /  0.5mm
06:38 44.2 °F /  6.8 °C 41.4 °F /  5.2 °C 29.5in /  998.9hPa West 10.3mph /  16.6km/h 14.1mph /  22.7km/h 89% 0.02in /  0.5mm
06:43 44.2 °F /  6.8 °C 41.4 °F /  5.2 °C 29.5in /  998.9hPa WSW 10.5mph /  16.9km/h 13.9mph /  22.4km/h 89% 0.02in /  0.5mm
06:48 44.2 °F /  6.8 °C 41.5 °F /  5.3 °C 29.5in /  998.9hPa WSW 11mph /  17.7km/h 14.1mph /  22.7km/h 90% 0.02in /  0.5mm
06:53 44.2 °F /  6.8 °C 41.9 °F /  5.5 °C 29.5in /  998.9hPa West 13mph /  20.9km/h 14.1mph /  22.7km/h 91% 0.02in /  0.5mm
06:58 44.2 °F /  6.8 °C 41.9 °F /  5.5 °C 29.5in /  998.9hPa West 14.1mph /  22.7km/h 14.8mph /  23.8km/h 91% 0.01in /  0.3mm
07:03 44.2 °F /  6.8 °C 41.9 °F /  5.5 °C 29.5in /  998.9hPa West 15.4mph /  24.8km/h 15.4mph /  24.8km/h 91% 0.01in /  0.3mm
07:08 44.4 °F /  6.9 °C 41.7 °F /  5.4 °C 29.5in /  998.9hPa WSW 12.5mph /  20.1km/h 15.4mph /  24.8km/h 90% 0.01in /  0.3mm
07:13 44.4 °F /  6.9 °C 41.7 °F /  5.4 °C 29.5in /  998.9hPa West 16.8mph /  27.0km/h 16.8mph /  27.0km/h 90% 0.01in /  0.3mm
07:18 44.4 °F /  6.9 °C 41.2 °F /  5.1 °C 29.5in /  998.9hPa WSW 13.2mph /  21.2km/h 16.8mph /  27.0km/h 88% 0.01in /  0.3mm
07:23 44.4 °F /  6.9 °C 40.8 °F /  4.9 °C 29.5in /  998.9hPa West 15.2mph /  24.5km/h 16.8mph /  27.0km/h 87% 0.01in /  0.3mm
07:28 44.2 °F /  6.8 °C 40.6 °F /  4.8 °C 29.5in /  998.9hPa West 10.5mph /  16.9km/h 17mph /  27.4km/h 87% 0in /  0.0mm
07:33 44.2 °F /  6.8 °C 40.6 °F /  4.8 °C 29.5in /  998.9hPa WSW 10.1mph /  16.3km/h 17.4mph /  28.0km/h 87% 0in /  0.0mm
07:38 44.2 °F /  6.8 °C 40.5 °F /  4.7 °C 29.5in /  998.9hPa West 11mph /  17.7km/h 17.4mph /  28.0km/h 87% 0in /  0.0mm
07:43 44.2 °F /  6.8 °C 40.6 °F /  4.8 °C 29.5in /  998.9hPa West 13.2mph /  21.2km/h 17.7mph /  28.5km/h 87% 0in /  0.0mm
07:48 44.2 °F /  6.8 °C 40.6 °F /  4.8 °C 29.5in /  998.9hPa WSW 12.1mph /  19.5km/h 17.7mph /  28.5km/h 87% 0in /  0.0mm
07:53 44.2 °F /  6.8 °C 41 °F /  5.0 °C 29.5in /  998.9hPa West 9.2mph /  14.8km/h 15.4mph /  24.8km/h 88% 0in /  0.0mm
07:58 44.2 °F /  6.8 °C 41 °F /  5.0 °C 29.5in /  998.9hPa WSW 8.1mph /  13.0km/h 15.4mph /  24.8km/h 88% 0in /  0.0mm
08:03 44.2 °F /  6.8 °C 40.8 °F /  4.9 °C 29.5in /  998.9hPa WNW 7.4mph /  11.9km/h 12.8mph /  20.6km/h 88% 0in /  0.0mm
08:08 44.2 °F /  6.8 °C 40.8 °F /  4.9 °C 29.5in /  998.9hPa West 4.9mph /  7.9km/h 9.8mph /  15.8km/h 88% 0in /  0.0mm
08:13 44.1 °F /  6.7 °C 40.6 °F /  4.8 °C 29.5in /  998.9hPa West 8.5mph /  13.7km/h 9.6mph /  15.4km/h 88% 0in /  0.0mm
08:18 44.2 °F /  6.8 °C 41.2 °F /  5.1 °C 29.5in /  998.9hPa West 7.4mph /  11.9km/h 10.3mph /  16.6km/h 89% 0in /  0.0mm
08:23 44.2 °F /  6.8 °C 41.4 °F /  5.2 °C 29.5in /  998.9hPa West 8.5mph /  13.7km/h 10.3mph /  16.6km/h 89% 0in /  0.0mm
08:28 44.4 °F /  6.9 °C 41.5 °F /  5.3 °C 29.5in /  998.9hPa West 5.8mph /  9.3km/h 8.9mph /  14.3km/h 89% 0in /  0.0mm
08:33 44.4 °F /  6.9 °C 41.5 °F /  5.3 °C 29.5in /  998.9hPa West 6mph /  9.7km/h 8.7mph /  14.0km/h 89% 0in /  0.0mm
08:38 44.8 °F /  7.1 °C 41.7 °F /  5.4 °C 29.5in /  999.9hPa WSW 6.5mph /  10.5km/h 8.7mph /  14.0km/h 89% 0in /  0.0mm
08:43 45 °F /  7.2 °C 41.7 °F /  5.4 °C 29.5in /  999.9hPa WSW 9.8mph /  15.8km/h 11mph /  17.7km/h 89% 0in /  0.0mm
08:48 45 °F /  7.2 °C 41.7 °F /  5.4 °C 29.5in /  999.9hPa West 8.1mph /  13.0km/h 12.5mph /  20.1km/h 89% 0in /  0.0mm
08:53 45.1 °F /  7.3 °C 42.1 °F /  5.6 °C 29.5in /  999.9hPa WSW 8.5mph /  13.7km/h 12.5mph /  20.1km/h 89% 0in /  0.0mm
08:58 45.1 °F /  7.3 °C 42.1 °F /  5.6 °C 29.5in /  999.9hPa West 8.1mph /  13.0km/h 11.4mph /  18.3km/h 89% 0in /  0.0mm
09:03 45.1 °F /  7.3 °C 41.9 °F /  5.5 °C 29.5in /  999.9hPa WSW 6.9mph /  11.1km/h 11mph /  17.7km/h 88% 0in /  0.0mm
09:08 45.3 °F /  7.4 °C 42.1 °F /  5.6 °C 29.6in /  1000.9hPa WSW 7.6mph /  12.2km/h 11mph /  17.7km/h 88% 0in /  0.0mm
09:13 45.7 °F /  7.6 °C 42.4 °F /  5.8 °C 29.6in /  1000.9hPa WSW 7.8mph /  12.6km/h 9.6mph /  15.4km/h 89% 0in /  0.0mm
09:18 45.7 °F /  7.6 °C 42.4 °F /  5.8 °C 29.6in /  1000.9hPa WSW 11mph /  17.7km/h 11.2mph /  18.0km/h 89% 0in /  0.0mm
09:23 45.9 °F /  7.7 °C 42.4 °F /  5.8 °C 29.6in /  1000.9hPa WSW 6.3mph /  10.1km/h 11.2mph /  18.0km/h 88% 0in /  0.0mm
09:28 45.9 °F /  7.7 °C 42.6 °F /  5.9 °C 29.6in /  1000.9hPa WSW 6.5mph /  10.5km/h 11mph /  17.7km/h 88% 0in /  0.0mm
09:33 46 °F /  7.8 °C 42.4 °F /  5.8 °C 29.6in /  1000.9hPa WSW 10.7mph /  17.2km/h 11mph /  17.7km/h 87% 0in /  0.0mm
09:38 46 °F /  7.8 °C 42.3 °F /  5.7 °C 29.6in /  1000.9hPa WSW 8.7mph /  14.0km/h 12.3mph /  19.8km/h 86% 0in /  0.0mm
09:43 46.2 °F /  7.9 °C 42.3 °F /  5.7 °C 29.6in /  1000.9hPa WSW 11mph /  17.7km/h 13.4mph /  21.6km/h 86% 0in /  0.0mm
09:48 46.6 °F /  8.1 °C 42.3 °F /  5.7 °C 29.6in /  1000.9hPa WSW 13.4mph /  21.6km/h 13.4mph /  21.6km/h 85% 0in /  0.0mm
09:53 46.6 °F /  8.1 °C 42.4 °F /  5.8 °C 29.6in /  1000.9hPa WSW 10.3mph /  16.6km/h 13.4mph /  21.6km/h 85% 0in /  0.0mm
09:58 46.8 °F /  8.2 °C 42.3 °F /  5.7 °C 29.6in /  1000.9hPa WSW 9.4mph /  15.1km/h 13.4mph /  21.6km/h 84% 0in /  0.0mm
10:03 47.1 °F /  8.4 °C 42.6 °F /  5.9 °C 29.6in /  1000.9hPa SW 9.6mph /  15.4km/h 14.3mph /  23.0km/h 84% 0in /  0.0mm
10:04 47.1 °F /  8.4 °C 42.6 °F /  5.9 °C 29.6in /  1000.9hPa SW 9.6mph /  15.4km/h 14.3mph /  23.0km/h 84% 0in /  0.0mm
10:09 47.3 °F /  8.5 °C 42.4 °F /  5.8 °C 29.5in /  999.9hPa West 8.7mph /  14.0km/h 14.8mph /  23.8km/h 83% 0in /  0.0mm
10:14 47.7 °F /  8.7 °C 42.8 °F /  6.0 °C 29.5in /  999.9hPa WSW 9.8mph /  15.8km/h 14.8mph /  23.8km/h 83% 0in /  0.0mm
10:19 47.8 °F /  8.8 °C 42.6 °F /  5.9 °C 29.5in /  999.9hPa WSW 10.3mph /  16.6km/h 13mph /  20.9km/h 82% 0in /  0.0mm
10:24 48 °F /  8.9 °C 42.8 °F /  6.0 °C 29.6in /  1000.9hPa WSW 8.7mph /  14.0km/h 13mph /  20.9km/h 82% 0in /  0.0mm
10:29 48.2 °F /  9.0 °C 42.6 °F /  5.9 °C 29.6in /  1000.9hPa WSW 12.3mph /  19.8km/h 17.7mph /  28.5km/h 81% 0in /  0.0mm
10:34 48.2 °F /  9.0 °C 42.3 °F /  5.7 °C 29.6in /  1000.9hPa WSW 8.7mph /  14.0km/h 17.7mph /  28.5km/h 80% 0in /  0.0mm
10:39 48.2 °F /  9.0 °C 42.3 °F /  5.7 °C 29.6in /  1000.9hPa WSW 13.2mph /  21.2km/h 14.8mph /  23.8km/h 80% 0in /  0.0mm
10:44 48.4 °F /  9.1 °C 42.4 °F /  5.8 °C 29.6in /  1000.9hPa West 10.5mph /  16.9km/h 15.2mph /  24.5km/h 80% 0in /  0.0mm
10:49 48.2 °F /  9.0 °C 41.4 °F /  5.2 °C 29.6in /  1000.9hPa West 15.2mph /  24.5km/h 15.4mph /  24.8km/h 77% 0in /  0.0mm
10:54 48.4 °F /  9.1 °C 41.9 °F /  5.5 °C 29.6in /  1000.9hPa WSW 13.2mph /  21.2km/h 15.4mph /  24.8km/h 78% 0in /  0.0mm
10:59 48.4 °F /  9.1 °C 41.9 °F /  5.5 °C 29.6in /  1000.9hPa WSW 15.2mph /  24.5km/h 17.7mph /  28.5km/h 78% 0in /  0.0mm
11:04 48.6 °F /  9.2 °C 42.1 °F /  5.6 °C 29.6in /  1000.9hPa WSW 10.3mph /  16.6km/h 17.7mph /  28.5km/h 78% 0in /  0.0mm
11:09 48.7 °F /  9.3 °C 42.4 °F /  5.8 °C 29.6in /  1000.9hPa WSW 13.2mph /  21.2km/h 15.4mph /  24.8km/h 79% 0in /  0.0mm
11:14 48.7 °F /  9.3 °C 42.4 °F /  5.8 °C 29.6in /  1000.9hPa West 9.8mph /  15.8km/h 15.4mph /  24.8km/h 79% 0in /  0.0mm
11:19 48.7 °F /  9.3 °C 42.4 °F /  5.8 °C 29.6in /  1000.9hPa WSW 10.3mph /  16.6km/h 15.9mph /  25.6km/h 79% 0in /  0.0mm
11:24 48.7 °F /  9.3 °C 43 °F /  6.1 °C 29.6in /  1000.9hPa WSW 11mph /  17.7km/h 15.9mph /  25.6km/h 80% 0in /  0.0mm
11:29 48.9 °F /  9.4 °C 43 °F /  6.1 °C 29.6in /  1000.9hPa WSW 8.5mph /  13.7km/h 13mph /  20.9km/h 80% 0in /  0.0mm
11:34 49.1 °F /  9.5 °C 43.5 °F /  6.4 °C 29.6in /  1000.9hPa WSW 7.4mph /  11.9km/h 12.1mph /  19.5km/h 81% 0in /  0.0mm
11:39 49.5 °F /  9.7 °C 44.2 °F /  6.8 °C 29.6in /  1000.9hPa WSW 7.8mph /  12.6km/h 8.5mph /  13.7km/h 82% 0in /  0.0mm
11:44 49.5 °F /  9.7 °C 43.5 °F /  6.4 °C 29.6in /  1000.9hPa WSW 13.6mph /  21.9km/h 15.4mph /  24.8km/h 80% 0in /  0.0mm
11:45 49.5 °F /  9.7 °C 43.2 °F /  6.2 °C 29.6in /  1000.9hPa WSW 10.3mph /  16.6km/h 15.4mph /  24.8km/h 79% 0in /  0.0mm
11:50 49.5 °F /  9.7 °C 42.3 °F /  5.7 °C 29.6in /  1000.9hPa SSW 10.1mph /  16.3km/h 15.4mph /  24.8km/h 76% 0in /  0.0mm
11:55 49.8 °F /  9.9 °C 42.6 °F /  5.9 °C 29.6in /  1000.9hPa West 13.2mph /  21.2km/h 13.2mph /  21.2km/h 76% 0in /  0.0mm
12:00 50 °F /  10.0 °C 42.4 °F /  5.8 °C 29.6in /  1000.9hPa WSW 12.5mph /  20.1km/h 13.2mph /  21.2km/h 75% 0in /  0.0mm
12:05 50.2 °F /  10.1 °C 42.4 °F /  5.8 °C 29.6in /  1000.9hPa West 10.3mph /  16.6km/h 14.3mph /  23.0km/h 75% 0in /  0.0mm
12:10 50.2 °F /  10.1 °C 41.2 °F /  5.1 °C 29.6in /  1000.9hPa WSW 10.7mph /  17.2km/h 16.3mph /  26.2km/h 71% 0in /  0.0mm
12:15 50 °F /  10.0 °C 40.6 °F /  4.8 °C 29.6in /  1000.9hPa WSW 17.9mph /  28.8km/h 17.9mph /  28.8km/h 70% 0in /  0.0mm
12:20 50 °F /  10.0 °C 41.4 °F /  5.2 °C 29.6in /  1000.9hPa WSW 13mph /  20.9km/h 17.9mph /  28.8km/h 72% 0in /  0.0mm
12:25 49.8 °F /  9.9 °C 40.8 °F /  4.9 °C 29.6in /  1000.9hPa WSW 15.2mph /  24.5km/h 19.2mph /  30.9km/h 71% 0in /  0.0mm
12:30 49.8 °F /  9.9 °C 41.9 °F /  5.5 °C 29.6in /  1000.9hPa WSW 10.5mph /  16.9km/h 19.2mph /  30.9km/h 74% 0in /  0.0mm
12:35 49.6 °F /  9.8 °C 42.1 °F /  5.6 °C 29.6in /  1000.9hPa SSW 13.2mph /  21.2km/h 15.7mph /  25.3km/h 75% 0in /  0.0mm
12:40 49.5 °F /  9.7 °C 43 °F /  6.1 °C 29.6in /  1000.9hPa SW 11mph /  17.7km/h 17.2mph /  27.7km/h 78% 0in /  0.0mm
12:45 49.1 °F /  9.5 °C 43 °F /  6.1 °C 29.6in /  1000.9hPa WSW 12.5mph /  20.1km/h 17.2mph /  27.7km/h 79% 0in /  0.0mm
12:50 48.9 °F /  9.4 °C 43 °F /  6.1 °C 29.6in /  1000.9hPa WSW 10.7mph /  17.2km/h 17.2mph /  27.7km/h 80% 0in /  0.0mm
12:55 48.7 °F /  9.3 °C 43 °F /  6.1 °C 29.6in /  1000.9hPa WSW 13mph /  20.9km/h 15.4mph /  24.8km/h 80% 0in /  0.0mm
13:00 48.4 °F /  9.1 °C 42.8 °F /  6.0 °C 29.6in /  1000.9hPa WSW 14.1mph /  22.7km/h 15.4mph /  24.8km/h 81% 0in /  0.0mm
13:05 48.4 °F /  9.1 °C 42.8 °F /  6.0 °C 29.6in /  1000.9hPa SW 8.7mph /  14.0km/h 15.4mph /  24.8km/h 81% 0in /  0.0mm
13:10 48.6 °F /  9.2 °C 43 °F /  6.1 °C 29.6in /  1000.9hPa WSW 10.5mph /  16.9km/h 15.2mph /  24.5km/h 81% 0in /  0.0mm
13:15 48.4 °F /  9.1 °C 42.8 °F /  6.0 °C 29.6in /  1000.9hPa SW 9.4mph /  15.1km/h 14.3mph /  23.0km/h 81% 0in /  0.0mm
13:20 48 °F /  8.9 °C 42.8 °F /  6.0 °C 29.6in /  1000.9hPa SSW 7.8mph /  12.6km/h 14.5mph /  23.3km/h 82% 0in /  0.0mm
13:25 47.7 °F /  8.7 °C 43.2 °F /  6.2 °C 29.6in /  1000.9hPa SW 9.8mph /  15.8km/h 16.3mph /  26.2km/h 84% 0in /  0.0mm
13:30 47.1 °F /  8.4 °C 43 °F /  6.1 °C 29.6in /  1000.9hPa SSW 8.1mph /  13.0km/h 16.3mph /  26.2km/h 85% 0in /  0.0mm
13:35 46.9 °F /  8.3 °C 43 °F /  6.1 °C 29.6in /  1000.9hPa SW 7.4mph /  11.9km/h 8.7mph /  14.0km/h 86% 0in /  0.0mm
13:40 46.8 °F /  8.2 °C 43.2 °F /  6.2 °C 29.6in /  1000.9hPa SW 4.9mph /  7.9km/h 8.7mph /  14.0km/h 87% 0in /  0.0mm
13:45 46.8 °F /  8.2 °C 43.5 °F /  6.4 °C 29.6in /  1000.9hPa SSW 4.9mph /  7.9km/h 8.7mph /  14.0km/h 88% 0in /  0.0mm
13:50 46.8 °F /  8.2 °C 43.7 °F /  6.5 °C 29.6in /  1000.9hPa SSW 5.4mph /  8.7km/h 7.4mph /  11.9km/h 89% 0in /  0.0mm
13:55 46.8 °F /  8.2 °C 43.7 °F /  6.5 °C 29.6in /  1000.9hPa SW 3.4mph /  5.5km/h 6.5mph /  10.5km/h 89% 0in /  0.0mm
14:00 46.9 °F /  8.3 °C 44.2 °F /  6.8 °C 29.6in /  1000.9hPa Calm   6.3mph /  10.1km/h 90% 0in /  0.0mm
14:05 47.1 °F /  8.4 °C 44.8 °F /  7.1 °C 29.6in /  1000.9hPa WSW 6.5mph /  10.5km/h 6.9mph /  11.1km/h 91% 0in /  0.0mm
14:10 47.1 °F /  8.4 °C 44.8 °F /  7.1 °C 29.6in /  1000.9hPa SW 5.8mph /  9.3km/h 7.8mph /  12.6km/h 91% 0in /  0.0mm
14:15 47.3 °F /  8.5 °C 45 °F /  7.2 °C 29.6in /  1000.9hPa SSW 7.4mph /  11.9km/h 11.9mph /  19.1km/h 91% 0in /  0.0mm
14:20 47.3 °F /  8.5 °C 45 °F /  7.2 °C 29.6in /  1000.9hPa SW 12.5mph /  20.1km/h 14.8mph /  23.8km/h 91% 0in /  0.0mm
14:25 47.5 °F /  8.6 °C 44.8 °F /  7.1 °C 29.6in /  1000.9hPa West 14.5mph /  23.3km/h 17.2mph /  27.7km/h 90% 0in /  0.0mm
14:30 47.8 °F /  8.8 °C 44.8 °F /  7.1 °C 29.6in /  1000.9hPa WSW 10.3mph /  16.6km/h 17.4mph /  28.0km/h 89% 0in /  0.0mm
14:35 47.8 °F /  8.8 °C 44.8 °F /  7.1 °C 29.6in /  1000.9hPa WSW 10.3mph /  16.6km/h 15.2mph /  24.5km/h 89% 0in /  0.0mm
14:40 48 °F /  8.9 °C 44.8 °F /  7.1 °C 29.6in /  1000.9hPa SW 8.7mph /  14.0km/h 12.8mph /  20.6km/h 88% 0in /  0.0mm
14:45 48 °F /  8.9 °C 45 °F /  7.2 °C 29.6in /  1000.9hPa WSW 9.8mph /  15.8km/h 12.1mph /  19.5km/h 89% 0in /  0.0mm
14:50 48 °F /  8.9 °C 45 °F /  7.2 °C 29.6in /  1000.9hPa WSW 9.4mph /  15.1km/h 10.5mph /  16.9km/h 89% 0in /  0.0mm
14:55 48 °F /  8.9 °C 44.8 °F /  7.1 °C 29.5in /  999.9hPa SW 5.6mph /  9.0km/h 10.5mph /  16.9km/h 88% 0in /  0.0mm
14:56 48 °F /  8.9 °C 44.8 °F /  7.1 °C 29.5in /  999.9hPa SSW 6.5mph /  10.5km/h 10.5mph /  16.9km/h 88% 0in /  0.0mm
15:01 47.8 °F /  8.8 °C 44.4 °F /  6.9 °C 29.5in /  999.9hPa SW 8.7mph /  14.0km/h 12.8mph /  20.6km/h 88% 0in /  0.0mm
15:06 47.8 °F /  8.8 °C 44.4 °F /  6.9 °C 29.5in /  999.9hPa SW 8.7mph /  14.0km/h 14.5mph /  23.3km/h 88% 0in /  0.0mm
15:11 47.8 °F /  8.8 °C 44.4 °F /  6.9 °C 29.5in /  999.9hPa SW 10.1mph /  16.3km/h 14.5mph /  23.3km/h 88% 0in /  0.0mm
15:16 47.8 °F /  8.8 °C 44.4 °F /  6.9 °C 29.5in /  999.9hPa SSW 7.4mph /  11.9km/h 14.3mph /  23.0km/h 88% 0in /  0.0mm
15:21 47.7 °F /  8.7 °C 44.2 °F /  6.8 °C 29.5in /  999.9hPa SSW 8.5mph /  13.7km/h 11.9mph /  19.1km/h 88% 0in /  0.0mm
15:26 47.5 °F /  8.6 °C 43.9 °F /  6.6 °C 29.5in /  999.9hPa SW 8.1mph /  13.0km/h 12.3mph /  19.8km/h 87% 0in /  0.0mm
15:31 47.5 °F /  8.6 °C 43.9 °F /  6.6 °C 29.5in /  999.9hPa South 5.4mph /  8.7km/h 12.3mph /  19.8km/h 87% 0in /  0.0mm
15:36 47.3 °F /  8.5 °C 43.7 °F /  6.5 °C 29.5in /  999.9hPa South 8.7mph /  14.0km/h 12.3mph /  19.8km/h 87% 0in /  0.0mm
15:41 47.3 °F /  8.5 °C 43.3 °F /  6.3 °C 29.5in /  999.9hPa SW 9.8mph /  15.8km/h 12.8mph /  20.6km/h 86% 0in /  0.0mm
15:46 47.3 °F /  8.5 °C 43.3 °F /  6.3 °C 29.5in /  999.9hPa SSW 4.3mph /  6.9km/h 13.2mph /  21.2km/h 86% 0in /  0.0mm
15:51 47.1 °F /  8.4 °C 43.2 °F /  6.2 °C 29.5in /  999.9hPa SSW 3.6mph /  5.8km/h 13.2mph /  21.2km/h 86% 0in /  0.0mm
15:56 46.9 °F /  8.3 °C 43 °F /  6.1 °C 29.5in /  998.9hPa SSW 6.3mph /  10.1km/h 10.7mph /  17.2km/h 86% 0in /  0.0mm
16:01 46.9 °F /  8.3 °C 42.6 °F /  5.9 °C 29.5in /  998.9hPa SSE 5.8mph /  9.3km/h 10.7mph /  17.2km/h 85% 0in /  0.0mm
16:06 46.9 °F /  8.3 °C 42.6 °F /  5.9 °C 29.5in /  998.9hPa South 6.5mph /  10.5km/h 10.7mph /  17.2km/h 85% 0in /  0.0mm
16:11 46.9 °F /  8.3 °C 43 °F /  6.1 °C 29.5in /  998.9hPa South 5.8mph /  9.3km/h 10.1mph /  16.3km/h 86% 0in /  0.0mm
16:16 46.9 °F /  8.3 °C 43 °F /  6.1 °C 29.5in /  998.9hPa SSW 4mph /  6.4km/h 10.7mph /  17.2km/h 86% 0in /  0.0mm
16:21 46.8 °F /  8.2 °C 42.8 °F /  6.0 °C 29.5in /  998.9hPa SSW 5.4mph /  8.7km/h 10.7mph /  17.2km/h 86% 0in /  0.0mm
16:26 46.9 °F /  8.3 °C 43.3 °F /  6.3 °C 29.5in /  997.9hPa South 8.7mph /  14.0km/h 8.7mph /  14.0km/h 87% 0in /  0.0mm
16:31 46.9 °F /  8.3 °C 43.3 °F /  6.3 °C 29.5in /  997.9hPa South 6mph /  9.7km/h 9.2mph /  14.8km/h 87% 0in /  0.0mm
16:36 46.9 °F /  8.3 °C 43.3 °F /  6.3 °C 29.5in /  997.9hPa South 6.5mph /  10.5km/h 9.8mph /  15.8km/h 87% 0in /  0.0mm
16:41 46.8 °F /  8.2 °C 43.2 °F /  6.2 °C 29.5in /  998.9hPa South 5.4mph /  8.7km/h 9.8mph /  15.8km/h 87% 0in /  0.0mm
16:46 46.8 °F /  8.2 °C 43.2 °F /  6.2 °C 29.5in /  998.9hPa SSW 6.7mph /  10.8km/h 8.5mph /  13.7km/h 87% 0in /  0.0mm
16:51 46.8 °F /  8.2 °C 43.5 °F /  6.4 °C 29.5in /  998.9hPa SSE 6mph /  9.7km/h 8.7mph /  14.0km/h 88% 0in /  0.0mm
16:56 46.6 °F /  8.1 °C 43.3 °F /  6.3 °C 29.5in /  998.9hPa SSE 4.9mph /  7.9km/h 9.8mph /  15.8km/h 88% 0in /  0.0mm
17:01 46.2 °F /  7.9 °C 43 °F /  6.1 °C 29.5in /  998.9hPa SE 5.8mph /  9.3km/h 9.8mph /  15.8km/h 88% 0in /  0.0mm
17:06 46 °F /  7.8 °C 43.2 °F /  6.2 °C 29.5in /  998.9hPa South 2mph /  3.2km/h 9.8mph /  15.8km/h 89% 0in /  0.0mm
17:11 45.9 °F /  7.7 °C 43.2 °F /  6.2 °C 29.5in /  997.9hPa SSW 5.6mph /  9.0km/h 8.5mph /  13.7km/h 90% 0in /  0.0mm
17:16 45.9 °F /  7.7 °C 43.5 °F /  6.4 °C 29.5in /  997.9hPa SSE 3.4mph /  5.5km/h 8.1mph /  13.0km/h 91% 0in /  0.0mm
17:21 45.9 °F /  7.7 °C 43.5 °F /  6.4 °C 29.5in /  997.9hPa SSE 6mph /  9.7km/h 10.5mph /  16.9km/h 92% 0in /  0.0mm
17:26 45.7 °F /  7.6 °C 43.7 °F /  6.5 °C 29.5in /  997.9hPa Calm   10.5mph /  16.9km/h 93% 0in /  0.0mm
17:31 45.7 °F /  7.6 °C 43.7 °F /  6.5 °C 29.5in /  997.9hPa ESE 0.9mph /  1.4km/h 7.6mph /  12.2km/h 93% 0in /  0.0mm
17:36 45.7 °F /  7.6 °C 44.1 °F /  6.7 °C 29.5in /  997.9hPa SSE 2.2mph /  3.5km/h 5.6mph /  9.0km/h 94% 0.01in /  0.3mm
17:41 45.3 °F /  7.4 °C 43.9 °F /  6.6 °C 29.5in /  997.9hPa SSE 6mph /  9.7km/h 6mph /  9.7km/h 94% 0.01in /  0.3mm
17:46 45.3 °F /  7.4 °C 44.1 °F /  6.7 °C 29.5in /  997.9hPa SSE 1.3mph /  2.1km/h 8.1mph /  13.0km/h 95% 0.01in /  0.3mm
17:51 45.3 °F /  7.4 °C 44.1 °F /  6.7 °C 29.5in /  997.9hPa SSE 3.8mph /  6.1km/h 9.8mph /  15.8km/h 95% 0.01in /  0.3mm
17:56 45.1 °F /  7.3 °C 43.9 °F /  6.6 °C 29.5in /  997.9hPa South 3.4mph /  5.5km/h 9.8mph /  15.8km/h 95% 0.01in /  0.3mm
18:01 45.1 °F /  7.3 °C 43.9 °F /  6.6 °C 29.5in /  997.9hPa SSE 6.3mph /  10.1km/h 8.1mph /  13.0km/h 95% 0.01in /  0.3mm
18:06 45.1 °F /  7.3 °C 44.2 °F /  6.8 °C 29.5in /  997.9hPa South 5.6mph /  9.0km/h 9.8mph /  15.8km/h 96% 0.01in /  0.3mm
18:11 45.1 °F /  7.3 °C 44.2 °F /  6.8 °C 29.4in /  996.8hPa SSE 6.3mph /  10.1km/h 10.5mph /  16.9km/h 96% 0.01in /  0.3mm
18:16 45.1 °F /  7.3 °C 44.1 °F /  6.7 °C 29.4in /  996.8hPa SSE 1.3mph /  2.1km/h 10.5mph /  16.9km/h 96% 0.03in /  0.8mm
18:21 45.1 °F /  7.3 °C 44.1 °F /  6.7 °C 29.4in /  996.8hPa SSE 2.9mph /  4.7km/h 10.1mph /  16.3km/h 96% 0.03in /  0.8mm
18:26 45.1 °F /  7.3 °C 44.1 °F /  6.7 °C 29.4in /  996.8hPa South 3.1mph /  5.0km/h 6.5mph /  10.5km/h 96% 0.03in /  0.8mm
18:31 45.1 °F /  7.3 °C 44.1 °F /  6.7 °C 29.4in /  996.8hPa SSE 0.9mph /  1.4km/h 6mph /  9.7km/h 96% 0.03in /  0.8mm
18:36 45.1 °F /  7.3 °C 44.2 °F /  6.8 °C 29.4in /  996.8hPa SSE 3.4mph /  5.5km/h 4.3mph /  6.9km/h 97% 0.01in /  0.3mm
18:41 45.1 °F /  7.3 °C 44.2 °F /  6.8 °C 29.4in /  996.8hPa Calm   4.7mph /  7.6km/h 97% 0.01in /  0.3mm
18:46 45.1 °F /  7.3 °C 44.2 °F /  6.8 °C 29.4in /  996.8hPa South 2.5mph /  4.0km/h 6mph /  9.7km/h 97% 0.01in /  0.3mm
18:51 45.1 °F /  7.3 °C 44.2 °F /  6.8 °C 29.4in /  996.8hPa SSE 2.9mph /  4.7km/h 6.5mph /  10.5km/h 97% 0.01in /  0.3mm
18:56 45.1 °F /  7.3 °C 44.4 °F /  6.9 °C 29.4in /  996.8hPa South 7.4mph /  11.9km/h 8.5mph /  13.7km/h 97% 0.01in /  0.3mm
19:01 45.1 °F /  7.3 °C 44.4 °F /  6.9 °C 29.4in /  996.8hPa SW 3.8mph /  6.1km/h 8.5mph /  13.7km/h 97% 0.01in /  0.3mm
19:06 45.3 °F /  7.4 °C 44.6 °F /  7.0 °C 29.4in /  996.8hPa SW 3.1mph /  5.0km/h 7.2mph /  11.6km/h 97% 0.01in /  0.3mm
19:11 45.3 °F /  7.4 °C 44.6 °F /  7.0 °C 29.4in /  996.8hPa SSE 2.7mph /  4.3km/h 4mph /  6.4km/h 97% 0in /  0.0mm
19:12 45.3 °F /  7.4 °C 44.6 °F /  7.0 °C 29.4in /  996.8hPa SSW 3.4mph /  5.5km/h 4mph /  6.4km/h 97% 0in /  0.0mm
19:17 45.7 °F /  7.6 °C 44.8 °F /  7.1 °C 29.4in /  996.8hPa SSW 4mph /  6.4km/h 6mph /  9.7km/h 97% 0.01in /  0.3mm
19:22 45.7 °F /  7.6 °C 44.8 °F /  7.1 °C 29.4in /  996.8hPa Calm   6mph /  9.7km/h 97% 0.01in /  0.3mm
19:27 45.9 °F /  7.7 °C 45.1 °F /  7.3 °C 29.4in /  996.8hPa South 3.6mph /  5.8km/h 6.3mph /  10.1km/h 98% 0.01in /  0.3mm
19:32 45.9 °F /  7.7 °C 45.1 °F /  7.3 °C 29.4in /  996.8hPa SSW 6mph /  9.7km/h 7.6mph /  12.2km/h 98% 0.01in /  0.3mm
19:37 46.2 °F /  7.9 °C 45.5 °F /  7.5 °C 29.4in /  996.2hPa SW 6.5mph /  10.5km/h 8.5mph /  13.7km/h 97% 0.01in /  0.3mm
19:42 46.2 °F /  7.9 °C 45.5 °F /  7.5 °C 29.4in /  996.2hPa WSW 4.9mph /  7.9km/h 8.5mph /  13.7km/h 97% 0.01in /  0.3mm
19:47 46.6 °F /  8.1 °C 45.9 °F /  7.7 °C 29.4in /  996.2hPa WSW 5.8mph /  9.3km/h 9.4mph /  15.1km/h 98% 0.01in /  0.3mm
19:52 46.6 °F /  8.1 °C 46 °F /  7.8 °C 29.4in /  996.8hPa WSW 8.7mph /  14.0km/h 10.7mph /  17.2km/h 98% 0.01in /  0.3mm
19:57 46.8 °F /  8.2 °C 46.2 °F /  7.9 °C 29.4in /  996.8hPa WSW 8.1mph /  13.0km/h 10.7mph /  17.2km/h 98% 0.01in /  0.3mm
20:02 46.9 °F /  8.3 °C 46.6 °F /  8.1 °C 29.4in /  996.8hPa West 17.2mph /  27.7km/h 17.2mph /  27.7km/h 98% 0.01in /  0.3mm
20:07 47.1 °F /  8.4 °C 46.6 °F /  8.1 °C 29.4in /  996.2hPa West 11mph /  17.7km/h 17.2mph /  27.7km/h 98% 0.01in /  0.3mm
20:12 47.5 °F /  8.6 °C 46.9 °F /  8.3 °C 29.4in /  996.2hPa West 10.3mph /  16.6km/h 16.8mph /  27.0km/h 98% 0.01in /  0.3mm
20:17 47.5 °F /  8.6 °C 46.9 °F /  8.3 °C 29.4in /  996.2hPa West 9.6mph /  15.4km/h 16.8mph /  27.0km/h 98% 0in /  0.0mm
20:22 47.7 °F /  8.7 °C 47.1 °F /  8.4 °C 29.4in /  996.8hPa West 6.3mph /  10.1km/h 14.8mph /  23.8km/h 98% 0in /  0.0mm
20:27 47.7 °F /  8.7 °C 47.1 °F /  8.4 °C 29.4in /  996.8hPa West 12.5mph /  20.1km/h 13.2mph /  21.2km/h 98% 0in /  0.0mm
20:32 47.8 °F /  8.8 °C 47.3 °F /  8.5 °C 29.4in /  996.8hPa West 10.5mph /  16.9km/h 12.8mph /  20.6km/h 98% 0in /  0.0mm
20:37 47.8 °F /  8.8 °C 47.3 °F /  8.5 °C 29.4in /  996.8hPa West 10.3mph /  16.6km/h 13.2mph /  21.2km/h 98% 0in /  0.0mm
20:42 47.8 °F /  8.8 °C 47.3 °F /  8.5 °C 29.4in /  996.8hPa West 8.7mph /  14.0km/h 13.2mph /  21.2km/h 98% 0in /  0.0mm
20:47 47.8 °F /  8.8 °C 47.3 °F /  8.5 °C 29.4in /  996.8hPa West 8.7mph /  14.0km/h 14.8mph /  23.8km/h 98% 0in /  0.0mm
20:52 47.7 °F /  8.7 °C 47.1 °F /  8.4 °C 29.5in /  997.9hPa WSW 12.3mph /  19.8km/h 14.8mph /  23.8km/h 98% 0in /  0.0mm
20:57 47.7 °F /  8.7 °C 47.1 °F /  8.4 °C 29.5in /  997.9hPa West 16.3mph /  26.2km/h 17.2mph /  27.7km/h 98% 0in /  0.0mm
21:02 47.7 °F /  8.7 °C 47.1 °F /  8.4 °C 29.5in /  997.9hPa West 11.9mph /  19.1km/h 17.2mph /  27.7km/h 98% 0in /  0.0mm
21:07 47.7 °F /  8.7 °C 47.1 °F /  8.4 °C 29.5in /  997.9hPa West 14.5mph /  23.3km/h 17mph /  27.4km/h 98% 0in /  0.0mm
21:12 47.7 °F /  8.7 °C 47.1 °F /  8.4 °C 29.5in /  997.9hPa WSW 15.2mph /  24.5km/h 17.4mph /  28.0km/h 98% 0in /  0.0mm
21:17 47.7 °F /  8.7 °C 47.1 °F /  8.4 °C 29.5in /  997.9hPa West 8.5mph /  13.7km/h 17.4mph /  28.0km/h 98% 0in /  0.0mm
21:22 47.5 °F /  8.6 °C 46.9 °F /  8.3 °C 29.5in /  997.9hPa West 10.1mph /  16.3km/h 17.2mph /  27.7km/h 98% 0in /  0.0mm
21:27 47.3 °F /  8.5 °C 46.8 °F /  8.2 °C 29.5in /  997.9hPa SW 7.6mph /  12.2km/h 15.4mph /  24.8km/h 98% 0in /  0.0mm
21:32 47.1 °F /  8.4 °C 46.4 °F /  8.0 °C 29.5in /  997.9hPa NNE 12.3mph /  19.8km/h 15.4mph /  24.8km/h 97% 0in /  0.0mm
21:37 47.1 °F /  8.4 °C 46.4 °F /  8.0 °C 29.5in /  997.9hPa West 12.8mph /  20.6km/h 13.2mph /  21.2km/h 97% 0in /  0.0mm
21:42 46.9 °F /  8.3 °C 46.2 °F /  7.9 °C 29.5in /  997.9hPa West 5.8mph /  9.3km/h 12.8mph /  20.6km/h 97% 0in /  0.0mm
21:47 46.9 °F /  8.3 °C 46.2 °F /  7.9 °C 29.5in /  997.9hPa WSW 8.1mph /  13.0km/h 12.8mph /  20.6km/h 97% 0in /  0.0mm
21:52 46.9 °F /  8.3 °C 46.2 °F /  7.9 °C 29.5in /  998.9hPa WSW 6.3mph /  10.1km/h 12.8mph /  20.6km/h 97% 0in /  0.0mm
21:57 46.9 °F /  8.3 °C 46.2 °F /  7.9 °C 29.5in /  998.9hPa WSW 10.5mph /  16.9km/h 12.1mph /  19.5km/h 97% 0in /  0.0mm
22:02 46.8 °F /  8.2 °C 46 °F /  7.8 °C 29.5in /  998.9hPa WSW 7.4mph /  11.9km/h 12.1mph /  19.5km/h 97% 0in /  0.0mm
22:07 46.8 °F /  8.2 °C 46 °F /  7.8 °C 29.5in /  998.9hPa WSW 7.4mph /  11.9km/h 10.3mph /  16.6km/h 97% 0in /  0.0mm
22:12 46.8 °F /  8.2 °C 46 °F /  7.8 °C 29.5in /  998.9hPa WSW 7.4mph /  11.9km/h 7.4mph /  11.9km/h 97% 0in /  0.0mm
22:17 46.8 °F /  8.2 °C 46 °F /  7.8 °C 29.5in /  998.9hPa WSW 7.4mph /  11.9km/h 7.4mph /  11.9km/h 97% 0in /  0.0mm
22:22 46.8 °F /  8.2 °C 46 °F /  7.8 °C 29.5in /  998.9hPa West 9.2mph /  14.8km/h 9.2mph /  14.8km/h 97% 0in /  0.0mm
22:27 46.8 °F /  8.2 °C 46 °F /  7.8 °C 29.5in /  998.9hPa West 9.2mph /  14.8km/h 9.2mph /  14.8km/h 97% 0in /  0.0mm
22:32 46.8 °F /  8.2 °C 46 °F /  7.8 °C 29.5in /  998.9hPa West 9.2mph /  14.8km/h 9.2mph /  14.8km/h 97% 0in /  0.0mm
22:38 46.6 °F /  8.1 °C 45.9 °F /  7.7 °C 29.5in /  998.9hPa West 9.2mph /  14.8km/h 9.2mph /  14.8km/h 97% 0in /  0.0mm
22:43 46.6 °F /  8.1 °C 45.9 °F /  7.7 °C 29.5in /  998.9hPa West 9.2mph /  14.8km/h 9.2mph /  14.8km/h 97% 0in /  0.0mm
22:48 46.6 °F /  8.1 °C 45.9 °F /  7.7 °C 29.5in /  998.9hPa West 9.2mph /  14.8km/h 9.2mph /  14.8km/h 97% 0in /  0.0mm
22:53 46.6 °F /  8.1 °C 45.9 °F /  7.7 °C 29.5in /  998.9hPa West 9.2mph /  14.8km/h 9.2mph /  14.8km/h 97% 0in /  0.0mm
22:58 46.6 °F /  8.1 °C 45.9 °F /  7.7 °C 29.5in /  998.9hPa West 9.2mph /  14.8km/h 9.2mph /  14.8km/h 97% 0in /  0.0mm
23:03 46.6 °F /  8.1 °C 45.9 °F /  7.7 °C 29.5in /  998.9hPa West 9.2mph /  14.8km/h 9.2mph /  14.8km/h 97% 0in /  0.0mm
23:08 46.6 °F /  8.1 °C 45.9 °F /  7.7 °C 29.5in /  998.9hPa West 9.2mph /  14.8km/h 9.2mph /  14.8km/h 97% 0in /  0.0mm
23:13 46.6 °F /  8.1 °C 45.9 °F /  7.7 °C 29.5in /  998.9hPa West 9.2mph /  14.8km/h 9.2mph /  14.8km/h 97% 0in /  0.0mm
23:18 46.8 °F /  8.2 °C 46 °F /  7.8 °C 29.5in /  998.9hPa WSW 9.2mph /  14.8km/h 10.1mph /  16.3km/h 97% 0in /  0.0mm
23:23 46.9 °F /  8.3 °C 46.2 °F /  7.9 °C 29.5in /  998.9hPa WSW 9.2mph /  14.8km/h 10.1mph /  16.3km/h 97% 0.01in /  0.3mm
23:28 46.9 °F /  8.3 °C 46.2 °F /  7.9 °C 29.5in /  998.9hPa WSW 8.7mph /  14.0km/h 10.1mph /  16.3km/h 97% 0.01in /  0.3mm
23:33 46.9 °F /  8.3 °C 46.2 °F /  7.9 °C 29.5in /  998.9hPa SW 5.6mph /  9.0km/h 10.1mph /  16.3km/h 97% 0.01in /  0.3mm
23:38 46.9 °F /  8.3 °C 46.2 °F /  7.9 °C 29.5in /  998.9hPa WSW 9.8mph /  15.8km/h 10.5mph /  16.9km/h 97% 0.01in /  0.3mm
23:43 47.1 °F /  8.4 °C 46.6 °F /  8.1 °C 29.5in /  997.9hPa West 10.3mph /  16.6km/h 13mph /  20.9km/h 98% 0.02in /  0.5mm
23:48 47.3 °F /  8.5 °C 46.8 °F /  8.2 °C 29.5in /  997.9hPa WSW 19.7mph /  31.7km/h 19.7mph /  31.7km/h 98% 0.04in /  1.0mm
23:53 47.5 °F /  8.6 °C 46.9 °F /  8.3 °C 29.5in /  998.9hPa WSW 19.7mph /  31.7km/h 19.7mph /  31.7km/h 98% 0.04in /  1.0mm
23:58 47.5 °F /  8.6 °C 46.9 °F /  8.3 °C 29.5in /  998.9hPa WSW 19.7mph /  31.7km/h 19.7mph /  31.7km/h 98% 0.04in /  1.0mm
Données Historique de Météo Turbie

Mise a jour : 24/05/2018 10:10:15
Généré par Cumulus 1.9.4 (1099)